createdAt,value
2022-10-01T00:00:02.849Z,0.02
2022-10-01T00:01:02.607Z,0.02
2022-10-01T00:02:03.042Z,0.01
2022-10-01T00:03:02.602Z,0.02
2022-10-01T00:04:03.077Z,0.02
2022-10-01T00:05:02.640Z,0.03
2022-10-01T00:06:03.087Z,0.02
2022-10-01T00:07:01.935Z,0.02
2022-10-01T00:08:02.487Z,0.02
2022-10-01T00:09:02.178Z,0.03
2022-10-01T00:10:02.009Z,0.02
2022-10-01T00:11:02.434Z,0.02
2022-10-01T00:12:02.237Z,0.02
2022-10-01T00:13:02.337Z,0.02
2022-10-01T00:14:02.456Z,0.02
2022-10-01T00:15:06.002Z,0.02
2022-10-01T00:16:02.706Z,0.02
2022-10-01T00:17:03.097Z,0.02
2022-10-01T00:18:02.515Z,0.02
2022-10-01T00:19:03.045Z,0.02
2022-10-01T00:20:03.633Z,0.02
2022-10-01T00:21:03.109Z,0.02
2022-10-01T00:22:01.715Z,0.02
2022-10-01T00:23:02.082Z,0.02
2022-10-01T00:24:01.935Z,0.02
2022-10-01T00:25:02.022Z,0.02
2022-10-01T00:26:01.972Z,0.02
2022-10-01T00:27:01.720Z,0.02
2022-10-01T00:28:02.317Z,0.01
2022-10-01T00:29:01.915Z,0.02
2022-10-01T00:30:02.171Z,0.02
2022-10-01T00:31:01.956Z,0.02
2022-10-01T00:32:02.475Z,0.02
2022-10-01T00:33:02.910Z,0.01
2022-10-01T00:34:02.659Z,0.02
2022-10-01T00:35:02.624Z,0.02
2022-10-01T00:36:02.649Z,0.02
2022-10-01T00:37:02.145Z,0.02
2022-10-01T00:38:02.575Z,0.02
2022-10-01T00:39:02.247Z,0.02
2022-10-01T00:40:02.579Z,0.01
2022-10-01T00:41:02.190Z,0.01
2022-10-01T00:42:02.533Z,0.02
2022-10-01T00:43:02.660Z,0.01
2022-10-01T00:44:03.001Z,0.02
2022-10-01T00:45:02.940Z,0.02
2022-10-01T00:46:02.693Z,0.02
2022-10-01T00:47:02.169Z,0.02
2022-10-01T00:48:02.206Z,0.02
2022-10-01T00:49:02.335Z,0.02
2022-10-01T00:50:02.418Z,0.02
2022-10-01T00:51:02.134Z,0.01
2022-10-01T00:52:02.583Z,0.02
2022-10-01T00:53:02.828Z,0.01
2022-10-01T00:54:02.212Z,0.03
2022-10-01T00:55:02.790Z,0.02
2022-10-01T00:56:02.316Z,0.02
2022-10-01T00:57:01.838Z,0.02
2022-10-01T00:58:01.853Z,0.02
2022-10-01T00:59:01.985Z,0.02
2022-10-01T01:00:01.722Z,0.02
2022-10-01T01:01:02.289Z,0.02
2022-10-01T01:02:02.433Z,0.02
2022-10-01T01:03:02.867Z,0.03
2022-10-01T01:04:02.346Z,0.02
2022-10-01T01:05:02.762Z,0.02
2022-10-01T01:06:02.514Z,0.02
2022-10-01T01:07:02.189Z,0.03
2022-10-01T01:08:02.236Z,0.02
2022-10-01T01:09:01.945Z,0.02
2022-10-01T01:10:02.321Z,0.02
2022-10-01T01:11:02.069Z,0.02
2022-10-01T01:12:02.757Z,0.02
2022-10-01T01:13:02.530Z,0.02
2022-10-01T01:14:02.994Z,0.02
2022-10-01T01:15:02.532Z,0.02
2022-10-01T01:16:02.609Z,0.02
2022-10-01T01:17:01.830Z,0.02
2022-10-01T01:18:01.960Z,0.02
2022-10-01T01:19:01.974Z,0.02
2022-10-01T01:20:02.349Z,0.02
2022-10-01T01:21:02.082Z,0.02
2022-10-01T01:22:02.354Z,0.02
2022-10-01T01:23:02.278Z,0.01
2022-10-01T01:24:02.710Z,0.02
2022-10-01T01:25:02.399Z,0.02
2022-10-01T01:26:02.761Z,0.02
2022-10-01T01:27:02.271Z,0.02
2022-10-01T01:28:02.024Z,0.02
2022-10-01T01:29:02.381Z,0.02
2022-10-01T01:30:02.065Z,0.02
2022-10-01T01:31:02.337Z,0.02
2022-10-01T01:32:02.736Z,0.01
2022-10-01T01:33:02.398Z,0.02
2022-10-01T01:34:02.827Z,0.01
2022-10-01T01:35:02.602Z,0.02
2022-10-01T01:36:02.950Z,0.02
2022-10-01T01:37:02.343Z,0.02
2022-10-01T01:38:02.043Z,0.02
2022-10-01T01:39:02.487Z,0.02
2022-10-01T01:40:02.582Z,0.02
2022-10-01T01:41:02.323Z,0.02
2022-10-01T01:42:02.653Z,0.02
2022-10-01T01:43:02.314Z,0.02
2022-10-01T01:44:02.623Z,0.02
2022-10-01T01:45:02.912Z,0.02
2022-10-01T01:46:02.972Z,0.02
2022-10-01T01:47:02.187Z,0.01
2022-10-01T01:48:01.762Z,0.02
2022-10-01T01:49:02.239Z,0.01
2022-10-01T01:50:01.904Z,0.02
2022-10-01T01:51:02.215Z,0.02
2022-10-01T01:52:02.606Z,0.02
2022-10-01T01:53:02.284Z,0.02
2022-10-01T01:54:02.659Z,0.02
2022-10-01T01:55:02.424Z,0.02
2022-10-01T01:56:02.527Z,0.02
2022-10-01T01:57:03.102Z,0.02
2022-10-01T01:58:03.102Z,0.02
2022-10-01T01:59:02.581Z,0.02
2022-10-01T02:00:02.513Z,0.03
2022-10-01T02:01:03.067Z,0.02
2022-10-01T02:02:03.270Z,0.01
2022-10-01T02:03:03.010Z,0.02
2022-10-01T02:04:02.784Z,0.02
2022-10-01T02:05:03.050Z,0.02
2022-10-01T02:06:02.839Z,0.02
2022-10-01T02:07:03.413Z,0.02
2022-10-01T02:08:03.257Z,0.02
2022-10-01T02:09:02.914Z,0.02
2022-10-01T02:10:03.187Z,0.01
2022-10-01T02:11:02.914Z,0.02
2022-10-01T02:12:03.464Z,0.02
2022-10-01T02:13:02.955Z,0.02
2022-10-01T02:14:03.293Z,0.02
2022-10-01T02:15:03.051Z,0.02
2022-10-01T02:16:03.121Z,0.02
2022-10-01T02:17:03.445Z,0.02
2022-10-01T02:18:03.211Z,0.03
2022-10-01T02:19:03.576Z,0.02
2022-10-01T02:20:03.266Z,0.02
2022-10-01T02:21:03.644Z,0.02
2022-10-01T02:22:03.102Z,0.02
2022-10-01T02:23:03.075Z,0.01
2022-10-01T02:24:02.860Z,0.02
2022-10-01T02:25:03.284Z,0.02
2022-10-01T02:26:02.737Z,0.02
2022-10-01T02:27:03.209Z,0.02
2022-10-01T02:28:03.369Z,0.02
2022-10-01T02:29:02.963Z,0.02
2022-10-01T02:30:03.284Z,0.02
2022-10-01T02:31:02.757Z,0.02
2022-10-01T02:32:03.314Z,0.01
2022-10-01T02:33:02.768Z,0.02
2022-10-01T02:34:03.216Z,0.01
2022-10-01T02:35:02.990Z,0.03
2022-10-01T02:36:02.852Z,0.02
2022-10-01T02:37:02.945Z,0.02
2022-10-01T02:38:02.833Z,0.02
2022-10-01T02:39:03.321Z,0.02
2022-10-01T02:40:03.061Z,0.02
2022-10-01T02:41:02.803Z,0.02
2022-10-01T02:42:03.494Z,0.02
2022-10-01T02:43:03.268Z,0.02
2022-10-01T02:44:03.576Z,0.01
2022-10-01T02:45:03.118Z,0.02
2022-10-01T02:46:03.600Z,0.02
2022-10-01T02:47:02.986Z,0.02
2022-10-01T02:48:02.488Z,0.02
2022-10-01T02:49:02.901Z,0.02
2022-10-01T02:50:02.849Z,0.02
2022-10-01T02:51:02.332Z,0.02
2022-10-01T02:52:03.499Z,0.02
2022-10-01T02:53:02.989Z,0.02
2022-10-01T02:54:03.286Z,0.02
2022-10-01T02:55:03.218Z,0.02
2022-10-01T02:56:03.077Z,0.02
2022-10-01T02:57:03.101Z,0.02
2022-10-01T02:58:02.631Z,0.02
2022-10-01T02:59:02.852Z,0.02
2022-10-01T03:00:02.589Z,0.02
2022-10-01T03:01:03.056Z,0.02
2022-10-01T03:02:03.442Z,0.02
2022-10-01T03:03:03.082Z,0.01
2022-10-01T03:04:03.515Z,0.03
2022-10-01T03:05:02.986Z,0.02
2022-10-01T03:06:03.377Z,0.03
2022-10-01T03:07:03.491Z,0.02
2022-10-01T03:08:03.280Z,0.03
2022-10-01T03:09:03.750Z,0.02
2022-10-01T03:10:03.385Z,0.02
2022-10-01T03:11:03.754Z,0.02
2022-10-01T03:12:03.449Z,0.02
2022-10-01T03:13:03.459Z,0.02
2022-10-01T03:14:02.978Z,0.01
2022-10-01T03:15:03.186Z,0.02
2022-10-01T03:16:03.230Z,0.03
2022-10-01T03:17:03.578Z,0.02
2022-10-01T03:18:03.089Z,0.02
2022-10-01T03:19:03.352Z,0.02
2022-10-01T03:20:03.101Z,0.02
2022-10-01T03:21:03.555Z,0.02
2022-10-01T03:22:03.264Z,0.01
2022-10-01T03:23:03.708Z,0.02
2022-10-01T03:24:03.468Z,0.02
2022-10-01T03:25:03.251Z,0.03
2022-10-01T03:26:03.709Z,0.02
2022-10-01T03:27:02.461Z,0.02
2022-10-01T03:28:02.920Z,0.02
2022-10-01T03:29:02.444Z,0.02
2022-10-01T03:30:02.876Z,0.02
2022-10-01T03:31:02.823Z,0.02
2022-10-01T03:32:02.659Z,0.03
2022-10-01T03:33:03.137Z,0.02
2022-10-01T03:34:02.893Z,0.02
2022-10-01T03:35:02.668Z,0.02
2022-10-01T03:36:02.941Z,0.02
2022-10-01T03:37:02.989Z,0.02
2022-10-01T03:38:03.167Z,0.02
2022-10-01T03:39:02.971Z,0.02
2022-10-01T03:40:02.641Z,0.02
2022-10-01T03:41:03.012Z,0.03
2022-10-01T03:42:02.787Z,0.03
2022-10-01T03:43:02.826Z,0.02
2022-10-01T03:44:03.329Z,0.02
2022-10-01T03:45:02.829Z,0.02
2022-10-01T03:46:03.286Z,0.02
2022-10-01T03:47:03.314Z,0.03
2022-10-01T03:48:02.943Z,0.02
2022-10-01T03:49:03.362Z,0.02
2022-10-01T03:50:02.932Z,0.02
2022-10-01T03:51:03.414Z,0.02
2022-10-01T03:52:02.951Z,0.02
2022-10-01T03:53:03.423Z,0.02
2022-10-01T03:54:03.184Z,0.02
2022-10-01T03:55:02.877Z,0.02
2022-10-01T03:56:03.236Z,0.02
2022-10-01T03:57:03.027Z,0.02
2022-10-01T03:58:02.916Z,0.01
2022-10-01T03:59:03.331Z,0.02
2022-10-01T04:00:02.960Z,0.02
2022-10-01T04:01:02.927Z,0.02
2022-10-01T04:02:02.580Z,0.02
2022-10-01T04:03:02.449Z,0.02
2022-10-01T04:04:02.930Z,0.01
2022-10-01T04:05:02.403Z,0.01
2022-10-01T04:06:02.898Z,0.02
2022-10-01T04:07:02.021Z,0.02
2022-10-01T04:08:02.348Z,0.02
2022-10-01T04:09:02.135Z,0.02
2022-10-01T04:10:02.471Z,0.02
2022-10-01T04:11:02.169Z,0.02
2022-10-01T04:12:02.637Z,0.02
2022-10-01T04:13:02.408Z,0.01
2022-10-01T04:14:02.908Z,0.02
2022-10-01T04:15:02.621Z,0.02
2022-10-01T04:16:03.373Z,0.02
2022-10-01T04:17:02.687Z,0.02
2022-10-01T04:18:02.757Z,0.02
2022-10-01T04:19:03.141Z,0.02
2022-10-01T04:20:02.523Z,0.02
2022-10-01T04:21:02.513Z,0.02
2022-10-01T04:22:02.013Z,0.02
2022-10-01T04:23:02.045Z,0.02
2022-10-01T04:24:01.891Z,0.02
2022-10-01T04:25:02.364Z,0.02
2022-10-01T04:26:01.831Z,0.01
2022-10-01T04:27:02.217Z,0.02
2022-10-01T04:28:02.684Z,0.03
2022-10-01T04:29:02.264Z,0.02
2022-10-01T04:30:02.046Z,0.02
2022-10-01T04:31:02.420Z,0.02
2022-10-01T04:32:03.015Z,0.02
2022-10-01T04:33:02.584Z,0.02
2022-10-01T04:34:03.041Z,0.02
2022-10-01T04:35:02.732Z,0.02
2022-10-01T04:36:03.118Z,0.02
2022-10-01T04:37:02.921Z,0.02
2022-10-01T04:38:02.621Z,0.02
2022-10-01T04:39:03.165Z,0.02
2022-10-01T04:40:02.948Z,0.02
2022-10-01T04:41:02.700Z,0.02
2022-10-01T04:42:01.854Z,0.03
2022-10-01T04:43:02.316Z,0.02
2022-10-01T04:44:01.952Z,0.02
2022-10-01T04:45:02.421Z,0.02
2022-10-01T04:46:02.501Z,0.02
2022-10-01T04:47:02.709Z,0.02
2022-10-01T04:48:02.411Z,0.02
2022-10-01T04:49:02.705Z,0.02
2022-10-01T04:50:02.485Z,0.02
2022-10-01T04:51:02.471Z,0.02
2022-10-01T04:52:02.963Z,0.02
2022-10-01T04:53:02.722Z,0.02
2022-10-01T04:54:03.167Z,0.02
2022-10-01T04:55:02.960Z,0.02
2022-10-01T04:56:02.724Z,0.02
2022-10-01T04:57:02.080Z,0.02
2022-10-01T04:58:02.397Z,0.03
2022-10-01T04:59:01.940Z,0.02
2022-10-01T05:00:02.434Z,0.01
2022-10-01T05:01:02.466Z,0.02
2022-10-01T05:02:02.724Z,0.02
2022-10-01T05:03:02.557Z,0.02
2022-10-01T05:04:02.347Z,0.02
2022-10-01T05:05:02.718Z,0.02
2022-10-01T05:06:02.392Z,0.02
2022-10-01T05:07:02.920Z,0.02
2022-10-01T05:08:02.718Z,0.02
2022-10-01T05:09:02.545Z,0.02
2022-10-01T05:10:02.883Z,0.01
2022-10-01T05:11:02.679Z,0.01
2022-10-01T05:12:02.196Z,0.02
2022-10-01T05:13:01.880Z,0.02
2022-10-01T05:14:02.270Z,0.02
2022-10-01T05:15:02.127Z,0.02
2022-10-01T05:16:02.088Z,0.02
2022-10-01T05:17:02.425Z,0.02
2022-10-01T05:18:02.171Z,0.02
2022-10-01T05:19:02.602Z,0.02
2022-10-01T05:20:02.358Z,0.02
2022-10-01T05:21:02.808Z,0.02
2022-10-01T05:22:03.036Z,0.02
2022-10-01T05:23:02.734Z,0.02
2022-10-01T05:24:03.222Z,0.02
2022-10-01T05:25:02.604Z,0.01
2022-10-01T05:26:02.944Z,0.02
2022-10-01T05:27:02.479Z,0.02
2022-10-01T05:28:02.247Z,0.02
2022-10-01T05:29:02.638Z,0.02
2022-10-01T05:30:02.231Z,0.02
2022-10-01T05:31:02.163Z,0.01
2022-10-01T05:32:02.802Z,0.02
2022-10-01T05:33:02.550Z,0.03
2022-10-01T05:34:02.234Z,0.02
2022-10-01T05:35:02.622Z,0.03
2022-10-01T05:36:02.329Z,0.02
2022-10-01T05:37:02.424Z,0.03
2022-10-01T05:38:02.284Z,0.02
2022-10-01T05:39:02.112Z,0.02
2022-10-01T05:40:02.554Z,0.03
2022-10-01T05:41:02.432Z,0.02
2022-10-01T05:42:06.398Z,0.03
2022-10-01T05:43:02.561Z,0.02
2022-10-01T05:44:02.409Z,0.02
2022-10-01T05:45:02.867Z,0.02
2022-10-01T05:46:02.493Z,0.02
2022-10-01T05:47:03.014Z,0.03
2022-10-01T05:48:02.789Z,0.03
2022-10-01T05:49:02.730Z,0.02
2022-10-01T05:50:02.976Z,0.03
2022-10-01T05:51:02.794Z,0.03
2022-10-01T05:52:03.181Z,0.03
2022-10-01T05:53:03.017Z,0.04
2022-10-01T05:54:02.900Z,0.02
2022-10-01T05:55:02.772Z,0.03
2022-10-01T05:56:03.292Z,0.03
2022-10-01T05:57:02.624Z,0.03
2022-10-01T05:58:02.236Z,0.03
2022-10-01T05:59:02.011Z,0.03
2022-10-01T06:00:02.559Z,0.03
2022-10-01T06:01:02.199Z,0.03
2022-10-01T06:02:03.483Z,0.03
2022-10-01T06:03:03.393Z,0.03
2022-10-01T06:04:03.384Z,0.02
2022-10-01T06:05:03.522Z,0.03
2022-10-01T06:06:03.363Z,0.04
2022-10-01T06:07:03.773Z,0.03
2022-10-01T06:08:03.541Z,0.02
2022-10-01T06:09:03.358Z,0.03
2022-10-01T06:10:03.239Z,0.04
2022-10-01T06:11:03.797Z,0.04
2022-10-01T06:12:03.290Z,0.04
2022-10-01T06:13:02.764Z,0.04
2022-10-01T06:14:03.304Z,0.03
2022-10-01T06:15:02.918Z,0.03
2022-10-01T06:16:02.849Z,0.04
2022-10-01T06:17:03.397Z,0.04
2022-10-01T06:18:03.025Z,0.04
2022-10-01T06:19:02.884Z,0.03
2022-10-01T06:20:03.374Z,0.04
2022-10-01T06:21:02.984Z,0.05
2022-10-01T06:22:03.401Z,0.04
2022-10-01T06:23:02.954Z,0.04
2022-10-01T06:24:03.461Z,0.04
2022-10-01T06:25:03.094Z,0.05
2022-10-01T06:26:02.919Z,0.05
2022-10-01T06:27:02.508Z,0.06
2022-10-01T06:28:03.062Z,0.05
2022-10-01T06:29:02.736Z,0.06
2022-10-01T06:30:02.541Z,0.06
2022-10-01T06:31:03.125Z,0.06
2022-10-01T06:32:02.786Z,0.05
2022-10-01T06:33:03.293Z,0.04
2022-10-01T06:34:03.215Z,0.05
2022-10-01T06:35:03.126Z,0.05
2022-10-01T06:36:03.028Z,0.04
2022-10-01T06:37:02.928Z,0.06
2022-10-01T06:38:03.510Z,0.05
2022-10-01T06:39:03.146Z,0.06
2022-10-01T06:40:03.053Z,0.06
2022-10-01T06:41:02.926Z,0.05
2022-10-01T06:42:02.450Z,0.05
2022-10-01T06:43:03.024Z,0.07
2022-10-01T06:44:02.670Z,0.08
2022-10-01T06:45:02.563Z,0.06
2022-10-01T06:46:03.137Z,0.07
2022-10-01T06:47:02.773Z,0.09
2022-10-01T06:48:03.328Z,0.09
2022-10-01T06:49:02.837Z,0.09
2022-10-01T06:50:03.328Z,0.09
2022-10-01T06:51:02.780Z,0.09
2022-10-01T06:52:03.305Z,0.11
2022-10-01T06:53:03.636Z,0.12
2022-10-01T06:54:03.478Z,0.12
2022-10-01T06:55:03.275Z,0.12
2022-10-01T06:56:03.850Z,0.14
2022-10-01T06:57:02.728Z,0.15
2022-10-01T06:58:02.629Z,0.12
2022-10-01T06:59:03.135Z,0.10
2022-10-01T07:00:02.925Z,0.09
2022-10-01T07:01:02.875Z,0.09
2022-10-01T07:02:02.770Z,0.09
2022-10-01T07:03:03.297Z,0.09
2022-10-01T07:04:02.931Z,0.08
2022-10-01T07:05:02.909Z,0.08
2022-10-01T07:06:02.913Z,0.10
2022-10-01T07:07:03.317Z,0.10
2022-10-01T07:08:02.793Z,0.09
2022-10-01T07:09:03.262Z,0.10
2022-10-01T07:10:02.816Z,0.09
2022-10-01T07:11:03.272Z,0.08
2022-10-01T07:12:01.887Z,0.09
2022-10-01T07:13:01.765Z,0.09
2022-10-01T07:14:02.332Z,0.08
2022-10-01T07:15:01.934Z,0.09
2022-10-01T07:16:01.860Z,0.10
2022-10-01T07:17:02.430Z,0.10
2022-10-01T07:18:02.325Z,0.10
2022-10-01T07:19:02.889Z,0.09
2022-10-01T07:20:02.464Z,0.08
2022-10-01T07:21:02.338Z,0.07
2022-10-01T07:22:02.830Z,0.07
2022-10-01T07:23:03.321Z,0.08
2022-10-01T07:24:02.952Z,0.09
2022-10-01T07:25:02.974Z,0.10
2022-10-01T07:26:02.805Z,0.15
2022-10-01T07:27:07.076Z,0.15
2022-10-01T07:28:02.441Z,0.14
2022-10-01T07:29:02.323Z,0.13
2022-10-01T07:30:02.760Z,0.13
2022-10-01T07:31:02.666Z,0.14
2022-10-01T07:32:02.568Z,0.16
2022-10-01T07:33:02.479Z,0.17
2022-10-01T07:34:02.890Z,0.21
2022-10-01T07:35:02.576Z,0.23
2022-10-01T07:36:02.317Z,0.23
2022-10-01T07:37:03.009Z,0.23
2022-10-01T07:38:02.922Z,0.26
2022-10-01T07:39:02.819Z,0.34
2022-10-01T07:40:07.140Z,0.41
2022-10-01T07:41:02.673Z,0.41
2022-10-01T07:42:02.263Z,0.42
2022-10-01T07:43:02.247Z,0.40
2022-10-01T07:44:02.112Z,0.35
2022-10-01T07:45:01.970Z,0.30
2022-10-01T07:46:02.630Z,0.30
2022-10-01T07:47:02.333Z,0.32
2022-10-01T07:48:02.585Z,0.29
2022-10-01T07:49:02.136Z,0.30
2022-10-01T07:50:02.671Z,0.28
2022-10-01T07:51:02.687Z,0.28
2022-10-01T07:52:02.925Z,0.27
2022-10-01T07:53:03.023Z,0.23
2022-10-01T07:54:02.950Z,0.17
2022-10-01T07:55:02.773Z,0.21
2022-10-01T07:56:03.186Z,0.26
2022-10-01T07:57:02.151Z,0.34
2022-10-01T07:58:02.029Z,0.37
2022-10-01T07:59:02.463Z,0.31
2022-10-01T08:00:02.147Z,0.27
2022-10-01T08:01:02.131Z,0.23
2022-10-01T08:02:02.769Z,0.26
2022-10-01T08:03:02.646Z,0.31
2022-10-01T08:04:02.568Z,0.32
2022-10-01T08:05:02.423Z,0.33
2022-10-01T08:06:02.948Z,0.35
2022-10-01T08:07:02.886Z,0.35
2022-10-01T08:08:02.599Z,0.35
2022-10-01T08:09:03.105Z,0.40
2022-10-01T08:10:02.664Z,0.40
2022-10-01T08:11:03.058Z,0.29
2022-10-01T08:12:03.170Z,0.28
2022-10-01T08:13:02.997Z,0.28
2022-10-01T08:14:02.859Z,0.25
2022-10-01T08:15:03.265Z,0.26
2022-10-01T08:16:03.047Z,0.26
2022-10-01T08:17:02.748Z,0.32
2022-10-01T08:18:02.510Z,0.32
2022-10-01T08:19:02.323Z,0.40
2022-10-01T08:20:02.839Z,0.20
2022-10-01T08:21:02.449Z,0.44
2022-10-01T08:22:03.050Z,0.35
2022-10-01T08:23:02.976Z,0.36
2022-10-01T08:24:02.908Z,0.35
2022-10-01T08:25:02.827Z,0.36
2022-10-01T08:26:03.273Z,0.38
2022-10-01T08:27:02.697Z,0.29
2022-10-01T08:28:02.681Z,0.30
2022-10-01T08:29:02.666Z,0.27
2022-10-01T08:30:02.506Z,0.23
2022-10-01T08:31:02.334Z,0.20
2022-10-01T08:32:02.970Z,0.21
2022-10-01T08:33:02.745Z,0.26
2022-10-01T08:34:02.951Z,0.35
2022-10-01T08:35:02.771Z,0.44
2022-10-01T08:36:02.615Z,0.40
2022-10-01T08:37:03.153Z,0.33
2022-10-01T08:38:03.098Z,0.33
2022-10-01T08:39:02.901Z,0.37
2022-10-01T08:40:02.805Z,0.45
2022-10-01T08:41:02.734Z,0.47
2022-10-01T08:42:03.359Z,0.49
2022-10-01T08:43:02.996Z,0.46
2022-10-01T08:44:02.951Z,0.49
2022-10-01T08:45:03.505Z,0.30
2022-10-01T08:46:03.074Z,0.35
2022-10-01T08:47:02.732Z,0.39
2022-10-01T08:48:02.502Z,0.42
2022-10-01T08:49:02.401Z,0.43
2022-10-01T08:50:02.296Z,0.45
2022-10-01T08:51:02.743Z,0.40
2022-10-01T08:52:03.346Z,0.41
2022-10-01T08:53:03.178Z,0.54
2022-10-01T08:54:03.100Z,0.61
2022-10-01T08:55:02.953Z,0.70
2022-10-01T08:56:02.798Z,0.72
2022-10-01T08:57:03.471Z,0.66
2022-10-01T08:58:03.405Z,0.71
2022-10-01T08:59:03.268Z,0.83
2022-10-01T09:00:03.055Z,0.88
2022-10-01T09:01:03.094Z,0.85
2022-10-01T09:02:02.761Z,0.69
2022-10-01T09:03:02.652Z,0.54
2022-10-01T09:04:02.484Z,0.47
2022-10-01T09:05:02.584Z,0.54
2022-10-01T09:06:02.335Z,0.49
2022-10-01T09:07:02.862Z,0.46
2022-10-01T09:08:02.630Z,0.47
2022-10-01T09:09:02.522Z,0.42
2022-10-01T09:10:02.947Z,0.41
2022-10-01T09:11:02.575Z,0.32
2022-10-01T09:12:03.125Z,0.37
2022-10-01T09:13:03.010Z,0.32
2022-10-01T09:14:02.749Z,0.37
2022-10-01T09:15:02.603Z,0.51
2022-10-01T09:16:03.109Z,0.60
2022-10-01T09:17:02.635Z,0.48
2022-10-01T09:18:02.214Z,0.45
2022-10-01T09:19:02.094Z,0.34
2022-10-01T09:20:02.549Z,0.33
2022-10-01T09:21:02.374Z,0.41
2022-10-01T09:22:02.936Z,0.46
2022-10-01T09:23:02.334Z,0.55
2022-10-01T09:24:02.833Z,0.55
2022-10-01T09:25:02.741Z,0.49
2022-10-01T09:26:02.668Z,0.39
2022-10-01T09:27:03.202Z,0.32
2022-10-01T09:28:02.931Z,0.34
2022-10-01T09:29:02.877Z,0.32
2022-10-01T09:30:02.792Z,0.32
2022-10-01T09:31:02.665Z,0.39
2022-10-01T09:32:02.930Z,0.45
2022-10-01T09:33:02.520Z,0.53
2022-10-01T09:34:02.325Z,0.62
2022-10-01T09:35:04.627Z,0.62
2022-10-01T09:36:02.676Z,0.65
2022-10-01T09:37:02.524Z,0.77
2022-10-01T09:38:03.027Z,0.72
2022-10-01T09:39:02.953Z,0.64
2022-10-01T09:40:02.709Z,0.70
2022-10-01T09:41:02.650Z,0.75
2022-10-01T09:42:02.156Z,0.73
2022-10-01T09:43:02.677Z,0.79
2022-10-01T09:44:02.167Z,0.92
2022-10-01T09:45:02.710Z,0.91
2022-10-01T09:46:02.404Z,0.78
2022-10-01T09:47:02.317Z,0.72
2022-10-01T09:48:02.781Z,0.76
2022-10-01T09:49:02.563Z,0.76
2022-10-01T09:50:02.353Z,0.92
2022-10-01T09:51:02.910Z,0.92
2022-10-01T09:52:02.434Z,0.93
2022-10-01T09:53:02.964Z,1.13
2022-10-01T09:54:02.936Z,1.10
2022-10-01T09:55:03.061Z,1.01
2022-10-01T09:56:02.750Z,0.98
2022-10-01T09:57:02.679Z,1.02
2022-10-01T09:58:03.234Z,0.99
2022-10-01T09:59:02.787Z,0.98
2022-10-01T10:00:03.257Z,1.00
2022-10-01T10:01:02.898Z,1.06
2022-10-01T10:02:02.864Z,0.94
2022-10-01T10:03:03.002Z,0.83
2022-10-01T10:04:02.944Z,0.83
2022-10-01T10:05:02.913Z,0.86
2022-10-01T10:06:02.841Z,0.92
2022-10-01T10:07:02.958Z,1.02
2022-10-01T10:08:02.957Z,1.08
2022-10-01T10:09:03.511Z,0.99
2022-10-01T10:10:03.154Z,1.12
2022-10-01T10:11:03.087Z,0.99
2022-10-01T10:12:03.044Z,1.37
2022-10-01T10:13:03.021Z,0.92
2022-10-01T10:14:03.536Z,1.22
2022-10-01T10:15:03.280Z,0.78
2022-10-01T10:16:03.169Z,0.77
2022-10-01T10:17:03.077Z,0.74
2022-10-01T10:18:03.049Z,1.12
2022-10-01T10:19:03.554Z,1.35
2022-10-01T10:20:03.487Z,1.36
2022-10-01T10:21:03.561Z,1.25
2022-10-01T10:22:02.652Z,1.01
2022-10-01T10:23:03.143Z,0.96
2022-10-01T10:24:03.180Z,0.80
2022-10-01T10:25:02.750Z,1.03
2022-10-01T10:26:02.662Z,1.14
2022-10-01T10:27:02.222Z,1.00
2022-10-01T10:28:02.334Z,1.26
2022-10-01T10:29:02.591Z,1.17
2022-10-01T10:30:02.497Z,0.80
2022-10-01T10:31:02.723Z,0.58
2022-10-01T10:32:02.438Z,1.46
2022-10-01T10:33:02.514Z,0.70
2022-10-01T10:34:02.932Z,0.68
2022-10-01T10:35:03.294Z,0.68
2022-10-01T10:36:02.312Z,0.58
2022-10-01T10:37:02.916Z,0.70
2022-10-01T10:38:02.758Z,0.87
2022-10-01T10:39:03.386Z,0.96
2022-10-01T10:40:02.793Z,0.93
2022-10-01T10:41:02.822Z,0.90
2022-10-01T10:42:02.635Z,0.73
2022-10-01T10:43:02.566Z,0.59
2022-10-01T10:44:03.028Z,0.59
2022-10-01T10:45:02.661Z,0.68
2022-10-01T10:46:02.658Z,0.64
2022-10-01T10:47:03.244Z,0.68
2022-10-01T10:48:03.225Z,0.52
2022-10-01T10:49:03.077Z,0.48
2022-10-01T10:50:03.057Z,0.83
2022-10-01T10:51:03.038Z,0.65
2022-10-01T10:52:02.684Z,0.65
2022-10-01T10:53:02.919Z,0.63
2022-10-01T10:54:02.755Z,0.55
2022-10-01T10:55:02.989Z,0.50
2022-10-01T10:56:02.970Z,0.56
2022-10-01T10:57:02.830Z,0.62
2022-10-01T10:58:05.142Z,0.65
2022-10-01T10:59:03.076Z,0.66
2022-10-01T11:00:03.060Z,0.65
2022-10-01T11:01:03.196Z,0.63
2022-10-01T11:02:03.034Z,0.66
2022-10-01T11:03:03.172Z,0.72
2022-10-01T11:04:03.119Z,0.78
2022-10-01T11:05:03.153Z,0.67
2022-10-01T11:06:03.089Z,0.62
2022-10-01T11:07:02.942Z,0.54
2022-10-01T11:08:02.782Z,0.44
2022-10-01T11:09:02.802Z,0.36
2022-10-01T11:10:02.674Z,0.30
2022-10-01T11:11:03.216Z,0.28
2022-10-01T11:12:02.235Z,0.28
2022-10-01T11:13:02.100Z,0.25
2022-10-01T11:14:02.205Z,0.27
2022-10-01T11:15:02.390Z,0.87
2022-10-01T11:16:02.142Z,0.84
2022-10-01T11:17:02.291Z,0.84
2022-10-01T11:18:02.173Z,0.88
2022-10-01T11:19:02.149Z,0.88
2022-10-01T11:20:02.031Z,0.92
2022-10-01T11:21:02.063Z,1.01
2022-10-01T11:22:02.742Z,0.71
2022-10-01T11:23:02.742Z,0.74
2022-10-01T11:24:02.774Z,0.77
2022-10-01T11:25:02.986Z,0.73
2022-10-01T11:26:02.607Z,0.64
2022-10-01T11:27:02.946Z,0.62
2022-10-01T11:28:03.115Z,0.70
2022-10-01T11:29:02.980Z,0.73
2022-10-01T11:30:02.667Z,0.69
2022-10-01T11:31:02.776Z,0.64
2022-10-01T11:32:02.679Z,0.77
2022-10-01T11:33:02.900Z,0.96
2022-10-01T11:34:02.877Z,0.98
2022-10-01T11:35:02.787Z,0.60
2022-10-01T11:36:03.009Z,1.01
2022-10-01T11:37:02.552Z,0.98
2022-10-01T11:38:02.448Z,0.54
2022-10-01T11:39:02.331Z,0.53
2022-10-01T11:40:02.365Z,0.49
2022-10-01T11:41:02.105Z,0.47
2022-10-01T11:42:02.652Z,0.54
2022-10-01T11:43:02.525Z,0.56
2022-10-01T11:44:02.290Z,0.61
2022-10-01T11:45:02.324Z,0.62
2022-10-01T11:46:02.367Z,0.60
2022-10-01T11:47:02.924Z,0.62
2022-10-01T11:48:03.132Z,0.68
2022-10-01T11:49:02.787Z,0.72
2022-10-01T11:50:02.945Z,0.71
2022-10-01T11:51:02.900Z,0.64
2022-10-01T11:52:02.639Z,0.57
2022-10-01T11:53:02.267Z,0.66
2022-10-01T11:54:02.644Z,1.22
2022-10-01T11:55:02.276Z,0.78
2022-10-01T11:56:02.765Z,0.83
2022-10-01T11:57:03.180Z,0.93
2022-10-01T11:58:03.197Z,0.91
2022-10-01T11:59:03.175Z,0.92
2022-10-01T12:00:03.164Z,0.99
2022-10-01T12:01:03.169Z,0.99
2022-10-01T12:02:02.921Z,0.87
2022-10-01T12:03:02.564Z,0.75
2022-10-01T12:04:02.588Z,0.70
2022-10-01T12:05:02.593Z,0.69
2022-10-01T12:06:02.621Z,0.79
2022-10-01T12:07:03.301Z,0.79
2022-10-01T12:08:03.089Z,0.68
2022-10-01T12:09:02.863Z,0.66
2022-10-01T12:10:02.875Z,0.59
2022-10-01T12:11:03.330Z,0.56
2022-10-01T12:12:02.743Z,0.48
2022-10-01T12:13:02.338Z,0.36
2022-10-01T12:14:02.114Z,0.26
2022-10-01T12:15:06.443Z,0.30
2022-10-01T12:16:02.248Z,0.41
2022-10-01T12:17:03.323Z,0.84
2022-10-01T12:18:03.376Z,1.04
2022-10-01T12:19:03.108Z,0.98
2022-10-01T12:20:03.166Z,0.86
2022-10-01T12:21:02.785Z,0.82
2022-10-01T12:22:02.033Z,0.80
2022-10-01T12:23:02.370Z,0.78
2022-10-01T12:24:02.068Z,0.75
2022-10-01T12:25:02.224Z,0.76
2022-10-01T12:26:02.294Z,0.85
2022-10-01T12:27:02.077Z,0.76
2022-10-01T12:28:02.261Z,0.65
2022-10-01T12:29:02.429Z,0.48
2022-10-01T12:30:02.484Z,0.36
2022-10-01T12:31:02.749Z,0.31
2022-10-01T12:32:02.237Z,0.35
2022-10-01T12:33:02.310Z,0.39
2022-10-01T12:34:02.891Z,0.40
2022-10-01T12:35:02.498Z,0.43
2022-10-01T12:36:02.337Z,0.47
2022-10-01T12:37:02.867Z,0.55
2022-10-01T12:38:03.008Z,0.65
2022-10-01T12:39:03.090Z,0.72
2022-10-01T12:40:03.136Z,0.69
2022-10-01T12:41:03.007Z,0.54
2022-10-01T12:42:02.940Z,0.47
2022-10-01T12:43:04.480Z,0.42
2022-10-01T12:44:03.630Z,0.41
2022-10-01T12:45:03.054Z,0.55
2022-10-01T12:46:03.258Z,0.56
2022-10-01T12:47:03.142Z,0.56
2022-10-01T12:48:02.453Z,0.73
2022-10-01T12:49:02.665Z,0.69
2022-10-01T12:50:02.408Z,0.68
2022-10-01T12:51:02.439Z,0.68
2022-10-01T12:52:02.676Z,1.20
2022-10-01T12:53:03.488Z,0.62
2022-10-01T12:54:03.096Z,0.60
2022-10-01T12:55:03.103Z,0.61
2022-10-01T12:56:02.917Z,0.56
2022-10-01T12:57:03.419Z,0.48
2022-10-01T12:58:02.840Z,0.41
2022-10-01T12:59:03.117Z,0.40
2022-10-01T13:00:03.070Z,0.38
2022-10-01T13:01:03.147Z,0.35
2022-10-01T13:02:02.874Z,0.27
2022-10-01T13:03:02.810Z,0.33
2022-10-01T13:04:03.720Z,0.44
2022-10-01T13:05:03.089Z,0.43
2022-10-01T13:06:03.141Z,0.76
2022-10-01T13:07:02.672Z,0.99
2022-10-01T13:08:02.510Z,0.89
2022-10-01T13:09:02.419Z,0.80
2022-10-01T13:10:02.394Z,0.78
2022-10-01T13:11:02.685Z,0.80
2022-10-01T13:12:02.603Z,0.79
2022-10-01T13:13:02.687Z,0.70
2022-10-01T13:14:02.717Z,0.55
2022-10-01T13:15:02.661Z,0.53
2022-10-01T13:16:02.789Z,0.54
2022-10-01T13:17:02.883Z,0.61
2022-10-01T13:18:02.898Z,0.69